Main page
METAR-TAF:

METAR-TAF

Airports :

Córdoba Airport

Córdoba, Spain

latitude: 37-51N, longitude: 004-51W, elevation: 90 m

Current weather observation

The report was made 15 minutes ago, at 16:30 UTC
Wind 16 kt from the Southwest, varying between South/Southwest and West
Temperature 14°C
Humidity 72%
Pressure 1007 hPa
Visibility 10 km or more
Few clouds at a height of 3100 ft

METAR: LEBA 201630Z 23016KT 200V260 9999 FEW031 14/09 Q1007

Time: 17:45 (16:45 UTC)

Forecast

The report was made 2 hours and 45 minutes ago, at 14:00 UTC
Forecast valid from 20 at 15 UTC to 20 at 24 UTC
Wind 10 kt from the West
Visibility 10 km or more
Scattered clouds at a height of 2000 ft
Probability 30% :
Temporary
from 20 at 16 UTC to 20 at 19 UTC
Few clouds at a height of 2000 ft, Towering cumulus.
rain showers

TAF: LEBA 201400Z 2015/2024 26010KT 9999 SCT020 PROB30 TEMPO 2016/2019 SHRA FEW020TCU

Weather observations and forecasts of more than 4000 airports (METAR and TAF reports).

The available stations are represented by yellow and red dots on the map.

Hover mouse over dot to see the name of the station.

Then click to see weather observations and forecasts.

To change the map : click on the green buttons with a black cross to zoom in, on the green button with a dash to zoom out, or on the green arrows for adjacent maps.


METAR-TAF: